logo dgac
Sábado 16 de Febrero del 2019
Buscar por aerodromo o helipuerto
Ingrese nombre de aeródromo, localidad o designador OACI:
METAR del 16-02-2019 a las 10:00 UTC
METAR SCIE 161000Z 04004KT 9999 OVC013 16/14 Q1014
Viento: dirección 040 grados, velocidad 4 nudos
Visibilidad: 10 km o más
Nubes: Cubierto a 1300 pies sobre el nivel del aeródromo
Temperatura: 16 °C
Rocío: 14 °C
Humedad_relativa: 88%
Presión: 1014 hPa
METAR del 16-02-2019 a las 09:00 UTC
METAR SCIE 160900Z 03003KT 350V090 9999 OVC014 16/14 Q1013
Viento: dirección 030 grados, velocidad 3 nudos
Viento con dirección variable entre 350 y 090 grados
Visibilidad: 10 km o más
Nubes: Cubierto a 1400 pies sobre el nivel del aeródromo
Temperatura: 16 °C
Rocío: 14 °C
Humedad_relativa: 88%
Presión: 1013 hPa
METAR del 16-02-2019 a las 08:00 UTC
METAR SCIE 160800Z 04005KT 010V070 9999 OVC013 16/14 Q1013
Viento: dirección 040 grados, velocidad 5 nudos
Viento con dirección variable entre 010 y 070 grados
Visibilidad: 10 km o más
Nubes: Cubierto a 1300 pies sobre el nivel del aeródromo
Temperatura: 16 °C
Rocío: 14 °C
Humedad_relativa: 88%
Presión: 1013 hPa
METAR del 16-02-2019 a las 07:00 UTC
METAR SCIE 160700Z 36004KT 310V040 9999 OVC011 16/14 Q1013
Viento: dirección 360 grados, velocidad 4 nudos
Viento con dirección variable entre 310 y 040 grados
Visibilidad: 10 km o más
Nubes: Cubierto a 1100 pies sobre el nivel del aeródromo
Temperatura: 16 °C
Rocío: 14 °C
Humedad_relativa: 88%
Presión: 1013 hPa
METAR del 16-02-2019 a las 06:00 UTC
METAR SCIE 160600Z 01005KT 330V050 9999 OVC008 16/15 Q1013
Viento: dirección 010 grados, velocidad 5 nudos
Viento con dirección variable entre 330 y 050 grados
Visibilidad: 10 km o más
Nubes: Cubierto a 800 pies sobre el nivel del aeródromo
Temperatura: 16 °C
Rocío: 15 °C
Humedad_relativa: 94%
Presión: 1013 hPa
METAR del 16-02-2019 a las 05:00 UTC
METAR SCIE 160500Z 02005KT 340V050 9999 OVC010 16/14 Q1013
Viento: dirección 020 grados, velocidad 5 nudos
Viento con dirección variable entre 340 y 050 grados
Visibilidad: 10 km o más
Nubes: Cubierto a 1000 pies sobre el nivel del aeródromo
Temperatura: 16 °C
Rocío: 14 °C
Humedad_relativa: 88%
Presión: 1013 hPa
METAR del 16-02-2019 a las 04:00 UTC
METAR SCIE 160400Z 01005KT 320V050 9999 OVC010 16/15 Q1013
Viento: dirección 010 grados, velocidad 5 nudos
Viento con dirección variable entre 320 y 050 grados
Visibilidad: 10 km o más
Nubes: Cubierto a 1000 pies sobre el nivel del aeródromo
Temperatura: 16 °C
Rocío: 15 °C
Humedad_relativa: 94%
Presión: 1013 hPa
METAR del 16-02-2019 a las 03:00 UTC
METAR SCIE 160300Z 35005KT 270V030 9999 OVC011 16/14 Q1013
Viento: dirección 350 grados, velocidad 5 nudos
Viento con dirección variable entre 270 y 030 grados
Visibilidad: 10 km o más
Nubes: Cubierto a 1100 pies sobre el nivel del aeródromo
Temperatura: 16 °C
Rocío: 14 °C
Humedad_relativa: 88%
Presión: 1013 hPa
METAR del 16-02-2019 a las 02:00 UTC
METAR SCIE 160200Z 36006KT 320V040 8000 OVC012 16/14 Q1012
Viento: dirección 360 grados, velocidad 6 nudos
Viento con dirección variable entre 320 y 040 grados
Visibilidad: 8000 metros
Nubes: Cubierto a 1200 pies sobre el nivel del aeródromo
Temperatura: 16 °C
Rocío: 14 °C
Humedad_relativa: 88%
Presión: 1012 hPa
METAR del 16-02-2019 a las 01:00 UTC
METAR SCIE 160100Z 36007KT 340V040 6000 OVC010 16/14 Q1012
Viento: dirección 360 grados, velocidad 7 nudos
Viento con dirección variable entre 340 y 040 grados
Visibilidad: 6000 metros
Nubes: Cubierto a 1000 pies sobre el nivel del aeródromo
Temperatura: 16 °C
Rocío: 14 °C
Humedad_relativa: 88%
Presión: 1012 hPa